Time;durP1;ratioP1;P1;durP2;ratioP2;P2;SDS_P1;SDS_P2;PMS_P1;PMS_P2;Temp;Humidity;BMP_temperature;BMP_pressure;BME280_temperature;BME280_humidity;BME280_pressure;Samples;Min_cycle;Max_cycle;Signal;HPM_P1;HPM_P2
2022/07/13 04:32:48;;;;;;;6.03;3.60;;;;;;;24.01;59.67;100947.91;10316806;24;20681;-84
2022/07/13 04:37:53;;;;;;;3.63;3.30;;;;;;;23.80;59.07;100939.72;9913073;29;20571;-84
2022/07/13 04:42:56;;;;;;;3.92;3.53;;;;;;;24.39;58.95;100939.22;9909250;30;20209;-86
2022/07/13 04:48:00;;;;;;;4.43;3.42;;;;;;;24.33;58.58;100934.22;9908802;30;20190;-86
2022/07/13 04:53:10;;;;;;;3.58;3.28;;;;;;;24.28;59.26;100932.50;9925258;29;20205;-86
2022/07/13 04:58:13;;;;;;;6.20;3.45;;;;;;;24.60;57.77;100915.09;9896213;29;20261;-87
2022/07/13 05:03:15;;;;;;;3.85;3.42;;;;;;;24.68;57.72;100919.72;9898020;29;20205;-87
2022/07/13 05:08:18;;;;;;;5.93;2.97;;;;;;;24.77;57.94;100917.44;9896527;30;20647;-86
2022/07/13 05:13:20;;;;;;;5.15;3.85;;;;;;;24.82;58.38;100919.13;9894793;30;20277;-86
2022/07/13 05:18:29;;;;;;;5.40;3.33;;;;;;;24.79;57.45;100902.72;9901845;30;20225;-85
2022/07/13 05:23:37;;;;;;;10.65;3.80;;;;;;;24.86;57.36;100892.22;9907166;29;20209;-85
2022/07/13 05:28:42;;;;;;;5.07;3.13;;;;;;;25.04;55.73;100889.63;9880046;29;20204;-86
2022/07/13 05:33:48;;;;;;;4.20;3.00;;;;;;;25.29;53.67;100887.97;9925739;29;20274;-86
2022/07/13 05:38:55;;;;;;;3.70;2.50;;;;;;;25.23;55.35;100900.13;9873951;29;20646;-86
2022/07/13 05:43:59;;;;;;;5.47;2.10;;;;;;;25.41;52.38;100890.56;9888571;29;20569;-87
2022/07/13 05:49:02;;;;;;;2.90;1.58;;;;;;;25.64;46.98;100892.47;9894464;30;20197;-87
2022/07/13 05:54:04;;;;;;;3.50;1.75;;;;;;;25.76;46.06;100889.34;9878789;30;20215;-87
2022/07/13 05:59:27;;;;;;;2.45;1.20;;;;;;;25.86;44.79;100877.19;9910513;29;20241;-87
2022/07/13 06:04:29;;;;;;;1.98;1.10;;;;;;;26.10;43.85;100876.59;9875857;29;20270;-86
2022/07/13 06:09:32;;;;;;;2.67;1.08;;;;;;;25.38;44.97;100879.88;9894194;29;20221;-86
2022/07/13 06:14:34;;;;;;;1.35;0.90;;;;;;;25.58;44.32;100883.38;9889050;29;20242;-85
2022/07/13 06:19:37;;;;;;;2.60;1.17;;;;;;;25.75;43.16;100881.94;9879734;29;20248;-84
2022/07/13 06:24:41;;;;;;;1.00;1.00;;;;;;;25.34;44.52;100879.00;9907973;30;20231;-88
2022/07/13 06:29:43;;;;;;;2.75;0.95;;;;;;;25.76;43.23;100869.28;9892778;29;20233;-89
2022/07/13 06:34:46;;;;;;;1.98;0.77;;;;;;;26.00;42.59;100873.63;9876291;29;20263;-89
2022/07/13 06:39:48;;;;;;;1.27;0.93;;;;;;;25.86;42.33;100874.31;9890179;29;20306;-88
2022/07/13 06:44:51;;;;;;;1.75;0.98;;;;;;;26.37;41.81;100876.44;9881023;30;20266;-88
2022/07/13 06:49:53;;;;;;;3.85;0.98;;;;;;;26.44;41.60;100862.19;9908474;29;20281;-89
2022/07/13 06:54:56;;;;;;;1.48;1.00;;;;;;;27.05;39.74;100863.44;9919501;29;20209;-88
2022/07/13 06:59:59;;;;;;;3.75;1.00;;;;;;;27.40;39.64;100863.59;9930071;29;20225;-89
2022/07/13 07:05:07;;;;;;;1.55;1.00;;;;;;;27.67;38.41;100855.50;9887026;29;20235;-89
2022/07/13 07:10:10;;;;;;;1.20;1.10;;;;;;;27.75;37.42;100857.19;9921043;29;20519;-89
2022/07/13 07:15:12;;;;;;;2.05;1.30;;;;;;;27.80;37.64;100865.38;9916095;29;20201;-89
2022/07/13 07:20:16;;;;;;;2.33;1.10;;;;;;;27.92;37.44;100867.06;9899309;30;20528;-89
2022/07/13 07:25:19;;;;;;;1.35;1.25;;;;;;;27.97;38.30;100868.72;9886247;29;20247;-88
2022/07/13 07:30:21;;;;;;;2.53;0.85;;;;;;;27.86;36.51;100866.66;9898196;29;20639;-88
2022/07/13 07:35:23;;;;;;;1.20;1.10;;;;;;;28.16;35.97;100857.66;9916990;29;20275;-88
2022/07/13 07:40:26;;;;;;;1.50;0.82;;;;;;;28.02;34.38;100848.19;9883132;30;20301;-88
2022/07/13 07:45:28;;;;;;;1.30;0.90;;;;;;;28.11;34.60;100857.25;9898181;30;20262;-88
2022/07/13 07:50:31;;;;;;;1.35;0.80;;;;;;;28.51;33.18;100850.28;9910384;29;20806;-88
2022/07/13 07:55:33;;;;;;;1.30;1.10;;;;;;;28.55;33.27;100853.94;9904414;29;20288;-88
2022/07/13 08:00:37;;;;;;;1.30;0.90;;;;;;;29.05;32.82;100836.63;9910924;29;20571;-89
2022/07/13 08:05:41;;;;;;;0.98;0.82;;;;;;;28.66;33.23;100826.03;9865113;29;20207;-89
2022/07/13 08:10:44;;;;;;;2.63;1.10;;;;;;;29.00;32.90;100837.03;9881309;29;20213;-87
2022/07/13 08:15:47;;;;;;;2.33;0.98;;;;;;;29.30;32.23;100814.31;9895914;30;20345;-87
2022/07/13 08:20:50;;;;;;;3.05;1.02;;;;;;;29.85;31.34;100831.69;9894542;29;20232;-87
2022/07/13 08:25:52;;;;;;;3.22;1.33;;;;;;;29.12;31.08;100831.63;9895924;30;20197;-86
2022/07/13 08:30:54;;;;;;;2.30;1.00;;;;;;;28.70;32.70;100832.56;9892819;29;20310;-87
2022/07/13 08:41:18;;;;;;;4.47;1.20;;;;;;;28.47;31.54;100840.81;9897210;29;20319;-88
2022/07/13 08:46:21;;;;;;;5.65;1.40;;;;;;;28.96;31.45;100834.97;9901932;29;20333;-89
2022/07/13 08:51:25;;;;;;;1.35;1.05;;;;;;;29.41;31.30;100826.59;9895827;30;20206;-87
2022/07/13 08:56:27;;;;;;;5.53;1.85;;;;;;;29.73;30.74;100835.06;9880368;29;20285;-87
2022/07/13 09:01:31;;;;;;;1.25;1.15;;;;;;;29.41;31.68;100832.38;9880845;29;20236;-88
2022/07/13 09:06:38;;;;;;;3.03;1.40;;;;;;;29.64;30.66;100832.63;9881449;29;20229;-88
2022/07/13 09:11:40;;;;;;;4.15;1.20;;;;;;;29.54;31.14;100824.06;9891074;29;20305;-86
2022/07/13 09:16:47;;;;;;;2.00;1.20;;;;;;;28.73;32.44;100839.56;9902685;29;20237;-86
2022/07/13 09:21:51;;;;;;;5.78;1.42;;;;;;;28.59;32.41;100831.75;9892782;29;20262;-87
2022/07/13 09:26:53;;;;;;;2.03;1.42;;;;;;;29.53;31.35;100819.53;9907007;29;20236;-88
2022/07/13 09:31:58;;;;;;;4.88;1.38;;;;;;;30.09;31.17;100829.06;9876579;30;20306;-87
2022/07/13 09:37:09;;;;;;;2.60;1.42;;;;;;;30.25;30.41;100830.19;9881990;30;20650;-87
2022/07/13 09:42:24;;;;;;;2.72;1.60;;;;;;;30.13;30.89;100827.78;9925544;29;20235;-86
2022/07/13 09:47:27;;;;;;;5.35;1.70;;;;;;;30.25;31.46;100838.00;9866898;29;20217;-86
2022/07/13 09:52:30;;;;;;;3.00;1.33;;;;;;;30.16;31.29;100841.38;9887822;29;20209;-86
2022/07/13 09:57:46;;;;;;;2.50;1.40;;;;;;;30.39;30.32;100837.06;9906113;29;20317;-85
2022/07/13 10:03:01;;;;;;;3.95;1.60;;;;;;;31.13;28.91;100838.41;9906666;29;20682;-87
2022/07/13 10:08:04;;;;;;;5.50;1.52;;;;;;;30.46;29.30;100842.78;9898424;29;20285;-84
2022/07/13 10:13:07;;;;;;;7.60;1.63;;;;;;;30.90;29.74;100847.72;9888720;29;20294;-85
2022/07/13 10:18:12;;;;;;;1.73;1.17;;;;;;;30.45;30.13;100830.44;9898734;29;20257;-82
2022/07/13 10:23:30;;;;;;;5.07;1.08;;;;;;;30.82;30.05;100834.63;9900155;29;20610;-85
2022/07/13 10:29:01;;;;;;;2.95;1.67;;;;;;;31.67;29.99;100822.78;9889039;29;20296;-83
2022/07/13 10:34:06;;;;;;;4.47;1.58;;;;;;;30.78;30.14;100833.81;9879978;30;20263;-83
2022/07/13 10:39:12;;;;;;;2.83;1.55;;;;;;;30.90;30.09;100831.22;9881128;30;20287;-83
2022/07/13 10:44:36;;;;;;;4.57;1.60;;;;;;;30.93;29.81;100833.25;9862261;30;20237;-84
2022/07/13 10:49:51;;;;;;;5.88;1.50;;;;;;;30.81;30.08;100836.69;9856359;30;20687;-84
2022/07/13 10:55:07;;;;;;;4.15;1.40;;;;;;;30.30;30.43;100834.69;9872596;30;20206;-85
2022/07/13 11:00:25;;;;;;;5.18;1.60;;;;;;;30.65;30.47;100831.44;9865160;30;20636;-84
2022/07/13 11:05:35;;;;;;;4.20;1.50;;;;;;;31.21;30.06;100834.97;9845253;30;20607;-85
2022/07/13 11:10:38;;;;;;;2.65;1.20;;;;;;;30.84;30.38;100832.94;9851476;30;20552;-83
2022/07/13 11:15:53;;;;;;;5.53;1.95;;;;;;;31.40;30.08;100819.91;9846513;30;20306;-82
2022/07/13 11:21:12;;;;;;;3.10;1.45;;;;;;;30.79;30.90;100842.06;9861253;30;21051;-83
2022/07/13 11:26:53;;;;;;;3.15;1.52;;;;;;;30.51;31.02;100842.31;9868151;30;20237;-85
2022/07/13 11:31:56;;;;;;;5.25;1.67;;;;;;;30.34;32.10;100827.66;9885238;29;20264;-82
2022/07/13 11:37:03;;;;;;;3.42;1.17;;;;;;;30.19;32.53;100825.28;9891024;30;20237;-83
2022/07/13 11:42:07;;;;;;;3.22;1.70;;;;;;;30.67;31.47;100833.91;9889118;29;20290;-83
2022/07/13 11:47:10;;;;;;;5.25;1.58;;;;;;;30.35;31.58;100822.69;9890262;29;20236;-82
2022/07/13 11:52:19;;;;;;;2.55;1.10;;;;;;;31.08;32.17;100807.06;9901317;29;20551;-83
2022/07/13 11:57:22;;;;;;;1.75;0.85;;;;;;;31.14;31.76;100811.13;9899802;29;20228;-86
2022/07/13 12:02:24;;;;;;;5.18;0.80;;;;;;;31.60;32.51;100799.78;9874980;30;20555;-84
2022/07/13 12:07:30;;;;;;;4.68;1.23;;;;;;;31.91;29.65;100802.66;9871790;29;20286;-85
2022/07/13 12:12:35;;;;;;;3.25;0.93;;;;;;;31.69;30.97;100802.94;9874923;29;20233;-84
2022/07/13 12:17:52;;;;;;;2.25;1.00;;;;;;;31.42;29.83;100793.44;9866848;29;20651;-84
2022/07/13 12:22:56;;;;;;;1.73;0.95;;;;;;;31.90;30.04;100798.94;9887308;29;20305;-84
2022/07/13 12:28:02;;;;;;;4.80;1.05;;;;;;;31.09;30.28;100805.81;9886723;29;20282;-84
2022/07/13 12:33:09;;;;;;;2.10;0.88;;;;;;;31.28;29.59;100806.00;9885104;30;20321;-86
2022/07/13 12:38:14;;;;;;;4.28;1.23;;;;;;;31.45;30.10;100804.13;9899106;30;20249;-83
2022/07/13 12:43:22;;;;;;;3.20;0.95;;;;;;;31.04;29.49;100802.16;9873110;29;20854;-85
2022/07/13 12:48:32;;;;;;;3.92;1.00;;;;;;;31.22;30.22;100804.00;9899611;30;20282;-84
2022/07/13 12:53:45;;;;;;;4.10;1.10;;;;;;;30.82;30.07;100805.75;9885459;29;20225;-85
2022/07/13 12:58:50;;;;;;;6.90;1.80;;;;;;;31.34;30.79;100791.91;9886551;29;20245;-84
2022/07/13 13:03:53;;;;;;;5.60;1.52;;;;;;;31.56;30.40;100793.22;9871351;29;20266;-84
2022/07/13 13:09:06;;;;;;;2.92;2.00;;;;;;;31.74;30.61;100805.34;9899673;29;20232;-82
2022/07/13 13:14:09;;;;;;;3.88;1.65;;;;;;;31.92;31.99;100795.63;9900666;29;20233;-83
2022/07/13 13:19:12;;;;;;;3.30;1.50;;;;;;;31.86;29.76;100800.25;9899925;29;20614;-83
2022/07/13 13:24:14;;;;;;;6.63;1.70;;;;;;;31.58;30.18;100796.50;9884838;30;20297;-86
2022/07/13 13:34:38;;;;;;;5.97;1.98;;;;;;;31.63;29.75;100793.13;9886697;29;20235;-84
2022/07/13 13:39:40;;;;;;;4.68;1.73;;;;;;;31.53;29.63;100793.28;9869805;30;20563;-85
2022/07/13 13:44:42;;;;;;;8.65;2.13;;;;;;;31.96;29.87;100779.81;9900118;30;21062;-84
2022/07/13 13:49:46;;;;;;;4.97;1.23;;;;;;;31.98;30.10;100779.38;9866572;29;20233;-85
2022/07/13 13:54:49;;;;;;;3.75;1.80;;;;;;;31.79;30.32;100777.22;9869262;29;20240;-86
2022/07/13 13:59:52;;;;;;;5.55;1.88;;;;;;;31.84;31.07;100785.41;9887064;29;20645;-85
2022/07/13 14:05:14;;;;;;;2.13;1.83;;;;;;;31.00;31.46;100772.50;9871570;30;20236;-85
2022/07/13 14:10:17;;;;;;;2.55;1.58;;;;;;;31.64;30.23;100774.53;9883610;30;20851;-84
2022/07/13 14:15:19;;;;;;;10.15;2.03;;;;;;;31.38;29.64;100769.56;9914910;29;20240;-85
2022/07/13 14:20:23;;;;;;;8.23;1.70;;;;;;;31.34;29.50;100783.22;9881640;30;20314;-84
2022/07/13 14:25:32;;;;;;;2.70;1.98;;;;;;;30.50;31.23;100800.25;9883253;30;20305;-84
2022/07/13 14:30:39;;;;;;;3.70;1.63;;;;;;;29.82;32.03;100795.09;9869726;29;20308;-84
2022/07/13 14:35:44;;;;;;;6.45;1.67;;;;;;;29.65;32.13;100799.69;9897432;29;20237;-85
2022/07/13 14:40:46;;;;;;;2.83;1.60;;;;;;;30.15;31.77;100805.09;9897534;29;20365;-85
2022/07/13 14:45:49;;;;;;;2.30;1.23;;;;;;;29.51;32.41;100819.94;9899108;29;20620;-84
2022/07/13 14:50:51;;;;;;;4.25;1.75;;;;;;;29.04;32.55;100818.50;9899256;29;20258;-84
2022/07/13 14:56:12;;;;;;;3.33;1.55;;;;;;;28.77;32.95;100826.00;9883510;29;20233;-83
2022/07/13 15:01:17;;;;;;;3.00;1.67;;;;;;;29.39;32.20;100811.78;9898456;29;20643;-83
2022/07/13 15:06:20;;;;;;;2.78;1.83;;;;;;;28.89;33.62;100825.56;9879986;29;20237;-83
2022/07/13 15:11:23;;;;;;;2.08;1.45;;;;;;;29.04;34.60;100837.84;9912054;29;20234;-83
2022/07/13 15:16:26;;;;;;;1.08;0.90;;;;;;;28.78;34.04;100833.41;9868778;29;20237;-83
2022/07/13 15:21:28;;;;;;;4.15;1.33;;;;;;;29.21;34.05;100845.59;9906014;29;20257;-84
2022/07/13 15:26:31;;;;;;;3.42;1.40;;;;;;;27.62;41.89;100860.84;9888596;29;20664;-84
2022/07/13 15:31:34;;;;;;;4.78;2.22;;;;;;;26.85;47.05;100863.72;9887970;29;20731;-86
2022/07/13 15:36:36;;;;;;;3.38;1.88;;;;;;;27.33;47.67;100862.75;9886557;30;20357;-85
2022/07/13 15:41:39;;;;;;;3.80;1.45;;;;;;;26.66;47.30;100874.66;9887262;30;20266;-83
2022/07/13 15:46:42;;;;;;;4.25;1.98;;;;;;;26.47;46.66;100885.16;9872015;30;20286;-82
2022/07/13 15:51:44;;;;;;;2.03;1.02;;;;;;;27.14;44.18;100873.31;9879249;29;20241;-83
2022/07/13 15:56:46;;;;;;;1.65;1.10;;;;;;;26.91;43.18;100866.19;9883462;29;20237;-83
2022/07/13 16:01:49;;;;;;;1.70;0.90;;;;;;;27.05;43.52;100874.91;9884721;30;20256;-84
2022/07/13 16:06:52;;;;;;;1.67;0.82;;;;;;;26.59;43.51;100881.16;9896519;29;20241;-82
2022/07/13 16:11:54;;;;;;;2.33;0.73;;;;;;;27.03;42.07;100849.47;9894885;29;20262;-82
2022/07/13 16:16:57;;;;;;;2.83;0.80;;;;;;;26.36;44.04;100871.91;9887665;30;20240;-82
2022/07/13 16:21:59;;;;;;;1.00;0.90;;;;;;;26.86;45.85;100851.00;9889033;29;20260;-82
2022/07/13 16:27:02;;;;;;;1.98;0.73;;;;;;;27.33;41.02;100852.09;9902981;29;20229;-82
2022/07/13 16:32:11;;;;;;;2.08;0.82;;;;;;;27.87;39.82;100853.09;9874848;29;20257;-82
2022/07/13 16:37:13;;;;;;;1.85;1.00;;;;;;;27.82;39.63;100856.38;9891850;29;20616;-82
2022/07/13 16:42:16;;;;;;;2.88;1.10;;;;;;;27.87;37.93;100844.47;9924671;29;21141;-83
2022/07/13 16:47:20;;;;;;;1.95;0.95;;;;;;;28.48;37.56;100837.53;9903217;29;20236;-83
2022/07/13 16:52:25;;;;;;;2.85;0.88;;;;;;;28.52;36.87;100826.84;9905731;29;20875;-82
2022/07/13 16:57:27;;;;;;;1.48;0.55;;;;;;;28.50;32.90;100835.06;9882657;30;20536;-83
2022/07/13 17:02:31;;;;;;;1.45;0.40;;;;;;;28.74;31.72;100830.53;9911946;29;20225;-83
2022/07/13 17:07:34;;;;;;;0.45;0.22;;;;;;;28.67;31.82;100847.00;9893257;29;20812;-82
2022/07/13 17:12:37;;;;;;;1.13;0.50;;;;;;;28.90;31.04;100830.06;9898320;29;20213;-82
2022/07/13 17:17:39;;;;;;;1.42;0.60;;;;;;;28.47;31.64;100823.56;9899861;29;20610;-84
2022/07/13 17:22:42;;;;;;;2.10;0.50;;;;;;;29.26;32.23;100831.59;9869880;30;20260;-82
2022/07/13 17:27:45;;;;;;;1.65;1.00;;;;;;;29.15;32.36;100836.56;9900433;30;20302;-82
2022/07/13 17:32:47;;;;;;;0.55;0.45;;;;;;;29.59;31.57;100826.47;9884127;29;20705;-82
2022/07/13 17:37:50;;;;;;;1.05;0.95;;;;;;;28.87;33.59;100825.97;9913844;29;20552;-82
2022/07/13 17:42:53;;;;;;;1.77;1.00;;;;;;;28.74;34.30;100821.88;9871830;29;20252;-83
2022/07/13 17:47:56;;;;;;;2.55;1.40;;;;;;;28.65;35.07;100818.63;9904143;29;20290;-82
2022/07/13 17:52:58;;;;;;;3.05;1.58;;;;;;;29.05;34.63;100816.44;9888209;29;20228;-82
2022/07/13 17:58:05;;;;;;;2.53;1.23;;;;;;;29.06;34.93;100818.09;9887453;30;20326;-83
2022/07/13 18:03:09;;;;;;;5.28;1.95;;;;;;;28.77;35.45;100821.06;9853769;29;20309;-82
2022/07/13 18:08:12;;;;;;;3.63;1.65;;;;;;;28.12;36.68;100825.22;9904634;29;20237;-82
2022/07/13 18:13:14;;;;;;;3.47;1.88;;;;;;;28.37;37.27;100830.13;9892476;29;20241;-81
2022/07/13 18:18:17;;;;;;;3.53;1.38;;;;;;;28.38;37.31;100814.53;9883946;29;20293;-82
2022/07/13 18:28:40;;;;;;;4.95;2.13;;;;;;;28.37;37.75;100816.59;9883601;30;20333;-82
2022/07/13 18:33:43;;;;;;;3.63;2.00;;;;;;;28.07;38.03;100808.34;9897667;29;20301;-82
2022/07/13 18:38:47;;;;;;;5.15;1.80;;;;;;;28.42;38.24;100809.59;9879592;29;20260;-83
2022/07/13 18:43:50;;;;;;;3.40;2.00;;;;;;;28.23;38.53;100808.78;9905249;29;20607;-83
2022/07/13 18:48:54;;;;;;;3.42;1.80;;;;;;;28.40;38.25;100801.38;9893627;29;20241;-84
2022/07/13 18:53:57;;;;;;;4.82;1.85;;;;;;;27.78;39.25;100803.78;9914560;29;20236;-84
2022/07/13 18:59:01;;;;;;;4.15;2.45;;;;;;;27.47;39.75;100791.81;9876449;30;20689;-83
2022/07/13 19:04:04;;;;;;;4.28;2.28;;;;;;;27.70;39.42;100790.66;9927439;29;20237;-83
2022/07/13 19:09:07;;;;;;;4.22;1.80;;;;;;;27.76;39.48;100789.84;9891559;29;20217;-83
2022/07/13 19:14:09;;;;;;;3.28;1.98;;;;;;;28.17;38.76;100792.34;9903378;29;20233;-83
2022/07/13 19:19:12;;;;;;;3.88;2.50;;;;;;;27.62;40.50;100794.75;9903610;29;20259;-82
2022/07/13 19:24:14;;;;;;;3.30;2.20;;;;;;;27.27;40.67;100796.25;9878066;29;20529;-82
2022/07/13 19:29:16;;;;;;;4.90;2.28;;;;;;;28.13;39.38;100806.75;9892196;29;20276;-84
2022/07/13 19:34:19;;;;;;;2.45;1.88;;;;;;;27.43;41.22;100821.75;9882669;29;20226;-84
2022/07/13 19:39:22;;;;;;;2.10;1.58;;;;;;;26.72;42.53;100816.50;9862375;30;20233;-84
2022/07/13 19:44:24;;;;;;;2.90;1.60;;;;;;;27.12;41.61;100823.31;9887171;29;20549;-84
2022/07/13 19:49:27;;;;;;;3.33;1.67;;;;;;;27.27;40.55;100830.72;9856079;30;20234;-83
2022/07/13 19:54:30;;;;;;;3.50;1.88;;;;;;;27.54;39.64;100837.81;9878129;29;20234;-84
2022/07/13 19:59:43;;;;;;;4.25;1.33;;;;;;;27.47;40.44;100840.66;9886020;29;20273;-84
2022/07/13 20:04:45;;;;;;;2.45;1.70;;;;;;;27.69;39.90;100846.47;9859199;29;20241;-84
2022/07/13 20:09:47;;;;;;;3.45;1.50;;;;;;;27.28;40.54;100848.78;9902962;29;20230;-83
2022/07/13 20:14:50;;;;;;;2.25;1.30;;;;;;;26.94;41.16;100862.53;9873122;30;20631;-84
2022/07/13 20:19:52;;;;;;;3.08;1.52;;;;;;;26.11;42.61;100878.25;9891703;29;20244;-84
2022/07/13 20:24:55;;;;;;;3.53;1.33;;;;;;;26.48;41.49;100878.19;9870879;29;20278;-84
2022/07/13 20:29:57;;;;;;;2.08;1.10;;;;;;;26.50;41.44;100889.28;9871313;29;20265;-83
2022/07/13 20:34:59;;;;;;;2.13;1.35;;;;;;;26.55;41.08;100886.03;9851510;29;20238;-84
2022/07/13 20:40:03;;;;;;;2.20;1.38;;;;;;;26.50;41.52;100890.09;9873111;29;20297;-83
2022/07/13 20:45:06;;;;;;;3.30;1.33;;;;;;;26.07;42.13;100908.13;9882393;29;20230;-84
2022/07/13 20:50:09;;;;;;;2.28;1.63;;;;;;;26.28;41.78;100907.50;9899276;29;20229;-84
2022/07/13 20:55:12;;;;;;;4.28;1.55;;;;;;;26.40;41.81;100896.56;9890603;29;20266;-82
2022/07/13 21:00:14;;;;;;;6.22;1.73;;;;;;;26.25;42.85;100911.16;9861779;29;20279;-84
2022/07/13 21:05:17;;;;;;;3.45;1.60;;;;;;;25.88;43.52;100909.13;9873918;29;20238;-85
2022/07/13 21:10:19;;;;;;;4.88;1.38;;;;;;;26.41;42.39;100914.59;9884135;29;20259;-85
2022/07/13 21:15:22;;;;;;;3.47;1.40;;;;;;;26.51;42.45;100913.88;9869723;29;20664;-84
2022/07/13 21:20:24;;;;;;;1.88;1.17;;;;;;;26.42;43.00;100922.00;9854829;29;20249;-84
2022/07/13 21:30:48;;;;;;;2.58;1.55;;;;;;;26.07;44.07;100931.06;9874417;29;20777;-85
2022/07/13 21:35:51;;;;;;;3.47;1.60;;;;;;;25.70;45.47;100923.22;9882130;29;21035;-84
2022/07/13 21:40:54;;;;;;;3.38;1.95;;;;;;;25.49;45.94;100911.53;9856305;30;20264;-84
2022/07/13 21:45:56;;;;;;;4.18;1.77;;;;;;;25.60;45.56;100920.22;9870309;29;20225;-85
2022/07/13 21:51:00;;;;;;;4.50;2.35;;;;;;;24.67;47.81;100924.63;9880703;29;20266;-83
2022/07/13 21:56:04;;;;;;;5.20;1.80;;;;;;;25.71;45.69;100929.78;9924015;29;20228;-83
2022/07/13 22:01:06;;;;;;;3.05;1.73;;;;;;;25.54;46.12;100924.69;9898282;29;20313;-84
2022/07/13 22:06:15;;;;;;;4.75;2.00;;;;;;;25.74;45.55;100926.97;9878445;30;21081;-84
2022/07/13 22:11:55;;;;;;;3.00;1.70;;;;;;;25.49;46.68;100916.41;9839873;29;20299;-84
2022/07/13 22:17:35;;;;;;;5.85;2.55;;;;;;;25.28;46.97;100931.28;9886273;29;20302;-84
2022/07/13 22:23:15;;;;;;;3.72;2.55;;;;;;;25.38;47.11;100925.69;9908202;29;20264;-84
2022/07/13 22:28:56;;;;;;;2.72;1.95;;;;;;;24.94;48.61;100921.75;9901741;30;20305;-84
2022/07/13 22:34:36;;;;;;;3.75;2.35;;;;;;;24.94;47.96;100933.19;9878764;29;20229;-83
2022/07/13 22:40:16;;;;;;;5.38;2.75;;;;;;;25.03;47.92;100936.63;9883956;29;20233;-84
2022/07/13 22:45:56;;;;;;;6.68;2.53;;;;;;;24.79;48.03;100937.03;9893174;29;20212;-83
2022/07/13 22:51:36;;;;;;;4.75;2.55;;;;;;;24.08;49.90;100952.94;9873298;30;20298;-83
2022/07/13 22:57:16;;;;;;;5.75;2.47;;;;;;;24.34;49.42;100955.88;9898532;30;20258;-84
2022/07/13 23:02:56;;;;;;;5.97;2.58;;;;;;;24.07;50.17;100942.72;9903540;29;20249;-82
2022/07/13 23:08:36;;;;;;;4.90;2.05;;;;;;;24.51;49.45;100955.38;9920311;29;20245;-83
2022/07/13 23:14:16;;;;;;;15.70;2.85;;;;;;;24.39;49.50;100947.00;9897124;29;20209;-83
2022/07/13 23:19:56;;;;;;;8.27;2.30;;;;;;;24.29;49.82;100948.44;9895137;29;20218;-83
2022/07/13 23:25:37;;;;;;;7.13;2.45;;;;;;;24.29;49.55;100941.91;9895583;29;20579;-83
2022/07/13 23:30:58;;;;;;;6.18;2.65;;;;;;;23.84;51.04;100943.47;9894679;29;20304;-83
2022/07/13 23:36:01;;;;;;;8.20;2.33;;;;;;;23.96;51.03;100937.63;9895336;29;20224;-83
2022/07/13 23:41:03;;;;;;;10.65;2.85;;;;;;;24.30;49.79;100932.13;9896491;30;20249;-83
2022/07/13 23:46:06;;;;;;;11.40;2.88;;;;;;;23.70;51.37;100940.34;9910483;29;20792;-82
2022/07/13 23:51:09;;;;;;;8.88;2.53;;;;;;;23.85;51.25;100933.72;9901711;30;20238;-82
2022/07/13 23:56:12;;;;;;;12.77;3.28;;;;;;;23.76;51.09;100941.66;9908455;29;20229;-83
